This is the latest recevied weather packets stored in our database for station/object E25RIV-1. If no packets are shown the sender has not sent any weather packets the latest 10 day(s).
| Time | Temp. | Humidity | Pressure | Rain* | Wind** | Luminosity | Snow |
|---|---|---|---|---|---|---|---|
| 1777551536 | 28.89° C | 99% | 1004 hPa | - | - | 0 W/m² | - |
| 1777550913 | 28.89° C | 99% | 1003 hPa | - | - | 0 W/m² | - |
| 1777550289 | 28.89° C | 99% | 1003 hPa | - | - | 0 W/m² | - |
| 1777549665 | 29.44° C | 99% | 1003 hPa | - | - | 0 W/m² | - |
| 1777549040 | 29.44° C | 99% | 1003 hPa | - | - | 0 W/m² | - |
| 1777548416 | 29.44° C | 99% | 1002 hPa | - | - | 0 W/m² | - |
| 1777547791 | 29.44° C | 99% | 1002 hPa | - | - | 0 W/m² | - |
| 1777547167 | 30° C | 99% | 1002 hPa | - | - | 0 W/m² | - |
| 1777546543 | 30° C | 99% | 1002 hPa | - | - | 0 W/m² | - |
| 1777545919 | 30.56° C | 95% | 1001 hPa | - | - | 0 W/m² | - |
| 1777545294 | 30.56° C | 96% | 1001 hPa | - | - | 0 W/m² | - |
| 1777544670 | 30.56° C | 99% | 1002 hPa | - | - | 0 W/m² | - |
| 1777544045 | 30° C | 97% | 1002 hPa | - | - | 0 W/m² | - |
| 1777543421 | 30° C | 99% | 1002 hPa | - | - | 0 W/m² | - |
| 1777542796 | 30° C | 99% | 1002 hPa | - | - | 0 W/m² | - |
| 1777542173 | 30° C | 99% | 1002 hPa | - | - | 0 W/m² | - |
| 1777541549 | 30° C | 97% | 1002 hPa | - | - | 0 W/m² | - |
| 1777540925 | 30° C | 96% | 1003 hPa | - | - | 0 W/m² | - |
| 1777540300 | 30.56° C | 91% | 1003 hPa | - | - | 0 W/m² | - |
| 1777539676 | 30.56° C | 88% | 1006 hPa | - | - | 0 W/m² | - |
| 1777539053 | 31.67° C | 70% | 1004 hPa | - | - | 0 W/m² | - |
| 1777538428 | 32.78° C | 63% | 1002 hPa | - | - | 0 W/m² | - |
| 1777537805 | 34.44° C | 57% | 998 hPa | - | - | 0 W/m² | - |
| 1777537180 | 35° C | 56% | 997 hPa | - | - | 0 W/m² | - |
| 1777536556 | 36.11° C | 55% | 997 hPa | - | - | 0 W/m² | - |
* Rain since midnight (hover to see other rain measurements)
** Current wind speed in m/s (hover to see current wind gust speed)